sensor_id;sensor_type;location;lat;lon;timestamp;pressure;altitude;pressure_sealevel;temperature;humidity
71903;BME280;59778;50.310;18.780;2023-05-02T00:14:56;98638.22;;;11.16;65.00
71903;BME280;59778;50.310;18.780;2023-05-02T00:30:18;98636.34;;;11.16;66.16
71903;BME280;59778;50.310;18.780;2023-05-02T00:45:42;98639.47;;;11.13;67.01
71903;BME280;59778;50.310;18.780;2023-05-02T01:01:43;98630.31;;;10.86;68.92
71903;BME280;59778;50.310;18.780;2023-05-02T01:17:11;98640.03;;;10.40;74.13
71903;BME280;59778;50.310;18.780;2023-05-02T01:32:36;98637.91;;;10.63;71.77
71903;BME280;59778;50.310;18.780;2023-05-02T01:48:00;98624.25;;;10.84;70.58
71903;BME280;59778;50.310;18.780;2023-05-02T02:03:22;98630.91;;;10.48;73.84
71903;BME280;59778;50.310;18.780;2023-05-02T02:18:44;98624.09;;;10.58;74.03
71903;BME280;59778;50.310;18.780;2023-05-02T02:34:06;98634.59;;;10.68;72.82
71903;BME280;59778;50.310;18.780;2023-05-02T02:49:48;98628.78;;;10.43;74.75
71903;BME280;59778;50.310;18.780;2023-05-02T03:05:12;98632.75;;;10.19;75.68
71903;BME280;59778;50.310;18.780;2023-05-02T03:20:33;98631.34;;;10.51;71.99
71903;BME280;59778;50.310;18.780;2023-05-02T03:35:54;98632.09;;;10.66;70.71
71903;BME280;59778;50.310;18.780;2023-05-02T03:51:16;98650.09;;;10.74;69.66
71903;BME280;59778;50.310;18.780;2023-05-02T04:06:37;98655.41;;;10.88;69.02
71903;BME280;59778;50.310;18.780;2023-05-02T04:21:58;98664.00;;;10.92;69.29
71903;BME280;59778;50.310;18.780;2023-05-02T04:37:21;98667.94;;;11.24;67.83
71903;BME280;59778;50.310;18.780;2023-05-02T04:52:42;98682.03;;;11.88;64.66
71903;BME280;59778;50.310;18.780;2023-05-02T05:08:03;98685.00;;;12.26;64.45
71903;BME280;59778;50.310;18.780;2023-05-02T05:23:25;98701.97;;;12.94;60.56
71903;BME280;59778;50.310;18.780;2023-05-02T05:38:47;98696.19;;;13.54;61.08
71903;BME280;59778;50.310;18.780;2023-05-02T05:54:08;98714.25;;;14.31;56.20
71903;BME280;59778;50.310;18.780;2023-05-02T06:09:29;98723.66;;;15.16;56.09
71903;BME280;59778;50.310;18.780;2023-05-02T06:24:50;98734.06;;;15.87;54.42
71903;BME280;59778;50.310;18.780;2023-05-02T06:40:12;98755.78;;;16.18;53.53
71903;BME280;59778;50.310;18.780;2023-05-02T06:55:35;98758.31;;;17.03;49.57
71903;BME280;59778;50.310;18.780;2023-05-02T07:10:56;98762.84;;;17.32;48.03
71903;BME280;59778;50.310;18.780;2023-05-02T07:26:18;98791.00;;;18.09;46.28
71903;BME280;59778;50.310;18.780;2023-05-02T07:41:40;98797.72;;;18.01;46.42
71903;BME280;59778;50.310;18.780;2023-05-02T07:57:01;98801.41;;;18.75;47.09
71903;BME280;59778;50.310;18.780;2023-05-02T08:12:23;98814.03;;;19.04;46.93
71903;BME280;59778;50.310;18.780;2023-05-02T08:27:45;98815.91;;;19.15;46.20
71903;BME280;59778;50.310;18.780;2023-05-02T08:43:07;98824.28;;;19.92;46.98
71903;BME280;59778;50.310;18.780;2023-05-02T08:58:28;98820.38;;;20.27;46.89
71903;BME280;59778;50.310;18.780;2023-05-02T09:13:51;98811.88;;;20.11;47.55
71903;BME280;59778;50.310;18.780;2023-05-02T09:29:18;98842.63;;;19.48;49.39
71903;BME280;59778;50.310;18.780;2023-05-02T09:44:40;98849.47;;;19.46;49.86
71903;BME280;59778;50.310;18.780;2023-05-02T10:00:02;98854.25;;;19.05;51.36
71903;BME280;59778;50.310;18.780;2023-05-02T10:15:27;98862.91;;;18.97;51.35
71903;BME280;59778;50.310;18.780;2023-05-02T10:30:52;98887.50;;;18.87;52.35
71903;BME280;59778;50.310;18.780;2023-05-02T10:46:36;98885.97;;;19.08;52.46
71903;BME280;59778;50.310;18.780;2023-05-02T11:01:58;98884.47;;;19.45;51.20
71903;BME280;59778;50.310;18.780;2023-05-02T11:17:19;98904.06;;;18.75;54.65
71903;BME280;59778;50.310;18.780;2023-05-02T11:48:06;98938.03;;;18.69;54.92
71903;BME280;59778;50.310;18.780;2023-05-02T12:03:31;98943.50;;;18.81;55.66
71903;BME280;59778;50.310;18.780;2023-05-02T12:18:53;98958.38;;;19.08;56.15
71903;BME280;59778;50.310;18.780;2023-05-02T12:34:32;98961.28;;;18.27;56.18
71903;BME280;59778;50.310;18.780;2023-05-02T12:49:57;98969.66;;;18.44;56.09
71903;BME280;59778;50.310;18.780;2023-05-02T13:05:19;98972.16;;;18.57;53.87
71903;BME280;59778;50.310;18.780;2023-05-02T13:20:40;98967.38;;;18.17;50.53
71903;BME280;59778;50.310;18.780;2023-05-02T13:36:02;98977.28;;;17.95;53.51
71903;BME280;59778;50.310;18.780;2023-05-02T13:51:23;98991.66;;;18.20;50.84
71903;BME280;59778;50.310;18.780;2023-05-02T14:06:45;98994.75;;;17.89;49.30
71903;BME280;59778;50.310;18.780;2023-05-02T14:22:06;98989.09;;;17.42;50.19
71903;BME280;59778;50.310;18.780;2023-05-02T14:37:27;99010.47;;;17.40;50.50
71903;BME280;59778;50.310;18.780;2023-05-02T14:52:49;99041.81;;;16.67;50.57
71903;BME280;59778;50.310;18.780;2023-05-02T15:08:10;99043.09;;;16.39;50.23
71903;BME280;59778;50.310;18.780;2023-05-02T15:23:32;99053.31;;;16.08;53.44
71903;BME280;59778;50.310;18.780;2023-05-02T15:38:53;99093.19;;;15.72;53.85
71903;BME280;59778;50.310;18.780;2023-05-02T15:54:15;99125.47;;;15.64;54.94
71903;BME280;59778;50.310;18.780;2023-05-02T16:09:36;99071.72;;;14.67;65.94
71903;BME280;59778;50.310;18.780;2023-05-02T16:24:58;99120.50;;;14.50;66.41
71903;BME280;59778;50.310;18.780;2023-05-02T16:40:21;99115.66;;;14.13;69.29
71903;BME280;59778;50.310;18.780;2023-05-02T16:55:42;99168.28;;;13.67;nan
71903;BME280;59778;50.310;18.780;2023-05-02T17:11:03;99152.47;;;13.43;92.19
71903;BME280;59778;50.310;18.780;2023-05-02T17:26:25;99134.41;;;13.01;92.03
71903;BME280;59778;50.310;18.780;2023-05-02T17:41:47;99155.38;;;13.01;91.00
71903;BME280;59778;50.310;18.780;2023-05-02T17:57:08;99196.97;;;12.26;99.94
71903;BME280;59778;50.310;18.780;2023-05-02T18:12:30;99210.66;;;12.60;97.38
71903;BME280;59778;50.310;18.780;2023-05-02T18:27:52;99240.13;;;12.71;97.44
71903;BME280;59778;50.310;18.780;2023-05-02T18:43:13;99268.16;;;12.65;95.90
71903;BME280;59778;50.310;18.780;2023-05-02T18:58:35;99276.53;;;13.13;95.44
71903;BME280;59778;50.310;18.780;2023-05-02T19:13:56;99291.31;;;13.25;97.48
71903;BME280;59778;50.310;18.780;2023-05-02T19:29:20;99294.09;;;12.83;100.00
71903;BME280;59778;50.310;18.780;2023-05-02T19:44:42;99286.59;;;12.42;100.00
71903;BME280;59778;50.310;18.780;2023-05-02T20:00:06;99288.91;;;12.45;100.00
71903;BME280;59778;50.310;18.780;2023-05-02T20:15:28;99289.53;;;12.68;100.00
71903;BME280;59778;50.310;18.780;2023-05-02T20:30:49;99308.44;;;12.70;100.00
71903;BME280;59778;50.310;18.780;2023-05-02T20:46:12;99327.91;;;12.46;100.00
71903;BME280;59778;50.310;18.780;2023-05-02T21:01:36;99330.56;;;12.39;100.00
71903;BME280;59778;50.310;18.780;2023-05-02T21:16:58;99343.91;;;12.34;100.00
71903;BME280;59778;50.310;18.780;2023-05-02T21:32:19;99353.94;;;12.12;100.00
71903;BME280;59778;50.310;18.780;2023-05-02T21:47:41;99361.19;;;11.91;100.00
71903;BME280;59778;50.310;18.780;2023-05-02T22:03:04;99368.00;;;12.16;100.00
71903;BME280;59778;50.310;18.780;2023-05-02T22:18:29;99382.34;;;12.24;100.00
71903;BME280;59778;50.310;18.780;2023-05-02T22:33:51;99384.94;;;12.33;100.00
71903;BME280;59778;50.310;18.780;2023-05-02T22:49:12;99396.38;;;12.07;100.00
71903;BME280;59778;50.310;18.780;2023-05-02T23:04:33;99394.66;;;12.20;100.00
71903;BME280;59778;50.310;18.780;2023-05-02T23:19:55;99386.63;;;11.83;100.00
71903;BME280;59778;50.310;18.780;2023-05-02T23:35:17;99378.19;;;11.93;100.00
71903;BME280;59778;50.310;18.780;2023-05-02T23:50:38;99383.13;;;11.89;100.00
